sensor_id;sensor_type;location;lat;lon;timestamp;P1;durP1;ratioP1;P2;durP2;ratioP2
49175;SDS011;35012;47.200;9.748;2023-08-06T00:01:44;3.10;;;2.60;;
49175;SDS011;35012;47.200;9.748;2023-08-06T00:04:10;3.10;;;2.63;;
49175;SDS011;35012;47.200;9.748;2023-08-06T00:06:35;3.57;;;2.60;;
49175;SDS011;35012;47.200;9.748;2023-08-06T00:09:00;3.40;;;2.63;;
49175;SDS011;35012;47.200;9.748;2023-08-06T00:11:26;3.60;;;2.37;;
49175;SDS011;35012;47.200;9.748;2023-08-06T00:13:51;3.00;;;2.70;;
49175;SDS011;35012;47.200;9.748;2023-08-06T00:16:16;2.20;;;2.00;;
49175;SDS011;35012;47.200;9.748;2023-08-06T00:18:42;3.43;;;1.90;;
49175;SDS011;35012;47.200;9.748;2023-08-06T00:21:07;3.03;;;2.03;;
49175;SDS011;35012;47.200;9.748;2023-08-06T00:23:33;2.70;;;1.70;;
49175;SDS011;35012;47.200;9.748;2023-08-06T00:25:58;2.43;;;2.07;;
49175;SDS011;35012;47.200;9.748;2023-08-06T00:28:23;2.43;;;2.23;;
49175;SDS011;35012;47.200;9.748;2023-08-06T00:30:53;3.20;;;2.10;;
49175;SDS011;35012;47.200;9.748;2023-08-06T00:33:19;2.67;;;2.20;;
49175;SDS011;35012;47.200;9.748;2023-08-06T00:35:44;2.53;;;1.93;;
49175;SDS011;35012;47.200;9.748;2023-08-06T00:38:10;4.80;;;2.30;;
49175;SDS011;35012;47.200;9.748;2023-08-06T00:40:35;2.87;;;1.73;;
49175;SDS011;35012;47.200;9.748;2023-08-06T00:43:00;2.20;;;2.00;;
49175;SDS011;35012;47.200;9.748;2023-08-06T00:45:26;4.57;;;2.33;;
49175;SDS011;35012;47.200;9.748;2023-08-06T00:47:54;3.63;;;2.43;;
49175;SDS011;35012;47.200;9.748;2023-08-06T00:50:20;2.50;;;1.93;;
49175;SDS011;35012;47.200;9.748;2023-08-06T00:52:47;2.50;;;2.03;;
49175;SDS011;35012;47.200;9.748;2023-08-06T00:55:13;2.00;;;1.80;;
49175;SDS011;35012;47.200;9.748;2023-08-06T00:57:39;2.53;;;2.07;;
49175;SDS011;35012;47.200;9.748;2023-08-06T01:00:04;2.50;;;1.63;;
49175;SDS011;35012;47.200;9.748;2023-08-06T01:02:31;2.87;;;1.57;;
49175;SDS011;35012;47.200;9.748;2023-08-06T01:04:56;2.00;;;1.80;;
49175;SDS011;35012;47.200;9.748;2023-08-06T01:07:28;2.87;;;2.27;;
49175;SDS011;35012;47.200;9.748;2023-08-06T01:10:23;3.87;;;2.10;;
49175;SDS011;35012;47.200;9.748;2023-08-06T01:13:16;2.33;;;2.03;;
49175;SDS011;35012;47.200;9.748;2023-08-06T01:15:54;2.30;;;2.00;;
49175;SDS011;35012;47.200;9.748;2023-08-06T01:18:22;5.70;;;2.30;;
49175;SDS011;35012;47.200;9.748;2023-08-06T01:20:48;4.20;;;2.20;;
49175;SDS011;35012;47.200;9.748;2023-08-06T01:23:14;1.97;;;1.73;;
49175;SDS011;35012;47.200;9.748;2023-08-06T01:25:57;2.40;;;2.17;;
49175;SDS011;35012;47.200;9.748;2023-08-06T01:28:44;2.20;;;2.00;;
49175;SDS011;35012;47.200;9.748;2023-08-06T01:31:27;2.10;;;1.60;;
49175;SDS011;35012;47.200;9.748;2023-08-06T01:33:56;2.10;;;1.90;;
49175;SDS011;35012;47.200;9.748;2023-08-06T01:36:23;3.30;;;1.90;;
49175;SDS011;35012;47.200;9.748;2023-08-06T01:38:50;4.00;;;2.07;;
49175;SDS011;35012;47.200;9.748;2023-08-06T01:41:19;3.37;;;2.10;;
49175;SDS011;35012;47.200;9.748;2023-08-06T01:43:44;2.40;;;1.87;;
49175;SDS011;35012;47.200;9.748;2023-08-06T01:46:09;2.43;;;1.80;;
49175;SDS011;35012;47.200;9.748;2023-08-06T01:48:35;1.80;;;1.70;;
49175;SDS011;35012;47.200;9.748;2023-08-06T01:51:00;1.87;;;1.67;;
49175;SDS011;35012;47.200;9.748;2023-08-06T01:53:26;2.90;;;2.10;;
49175;SDS011;35012;47.200;9.748;2023-08-06T01:55:52;2.40;;;2.07;;
49175;SDS011;35012;47.200;9.748;2023-08-06T01:58:17;3.90;;;1.70;;
49175;SDS011;35012;47.200;9.748;2023-08-06T02:00:42;2.37;;;1.83;;
49175;SDS011;35012;47.200;9.748;2023-08-06T02:03:08;4.23;;;2.27;;
49175;SDS011;35012;47.200;9.748;2023-08-06T02:05:33;2.87;;;2.20;;
49175;SDS011;35012;47.200;9.748;2023-08-06T02:07:58;3.00;;;2.20;;
49175;SDS011;35012;47.200;9.748;2023-08-06T02:10:24;3.70;;;1.93;;
49175;SDS011;35012;47.200;9.748;2023-08-06T02:12:49;2.47;;;2.13;;
49175;SDS011;35012;47.200;9.748;2023-08-06T02:15:15;2.27;;;1.93;;
49175;SDS011;35012;47.200;9.748;2023-08-06T02:17:40;2.13;;;1.93;;
49175;SDS011;35012;47.200;9.748;2023-08-06T02:20:06;2.43;;;2.20;;
49175;SDS011;35012;47.200;9.748;2023-08-06T02:22:32;2.80;;;2.30;;
49175;SDS011;35012;47.200;9.748;2023-08-06T02:24:58;3.80;;;1.90;;
49175;SDS011;35012;47.200;9.748;2023-08-06T02:27:24;2.20;;;2.00;;
49175;SDS011;35012;47.200;9.748;2023-08-06T02:29:49;2.43;;;1.73;;
49175;SDS011;35012;47.200;9.748;2023-08-06T02:32:14;2.90;;;2.10;;
49175;SDS011;35012;47.200;9.748;2023-08-06T02:34:40;3.17;;;1.63;;
49175;SDS011;35012;47.200;9.748;2023-08-06T02:37:05;2.40;;;1.87;;
49175;SDS011;35012;47.200;9.748;2023-08-06T02:39:30;1.77;;;1.60;;
49175;SDS011;35012;47.200;9.748;2023-08-06T02:41:56;3.83;;;2.17;;
49175;SDS011;35012;47.200;9.748;2023-08-06T02:44:21;1.70;;;1.60;;
49175;SDS011;35012;47.200;9.748;2023-08-06T02:46:47;3.20;;;1.97;;
49175;SDS011;35012;47.200;9.748;2023-08-06T02:49:12;3.83;;;1.90;;
49175;SDS011;35012;47.200;9.748;2023-08-06T02:51:37;3.63;;;1.67;;
49175;SDS011;35012;47.200;9.748;2023-08-06T02:54:03;4.27;;;1.97;;
49175;SDS011;35012;47.200;9.748;2023-08-06T02:56:28;1.90;;;1.60;;
49175;SDS011;35012;47.200;9.748;2023-08-06T02:58:54;2.43;;;2.03;;
49175;SDS011;35012;47.200;9.748;2023-08-06T03:01:19;3.90;;;1.90;;
49175;SDS011;35012;47.200;9.748;2023-08-06T03:03:44;2.53;;;1.60;;
49175;SDS011;35012;47.200;9.748;2023-08-06T03:06:10;2.03;;;1.80;;
49175;SDS011;35012;47.200;9.748;2023-08-06T03:08:35;3.10;;;2.23;;
49175;SDS011;35012;47.200;9.748;2023-08-06T03:11:02;3.20;;;1.77;;
49175;SDS011;35012;47.200;9.748;2023-08-06T03:13:27;3.13;;;1.63;;
49175;SDS011;35012;47.200;9.748;2023-08-06T03:15:56;1.90;;;1.50;;
49175;SDS011;35012;47.200;9.748;2023-08-06T03:18:22;3.47;;;1.50;;
49175;SDS011;35012;47.200;9.748;2023-08-06T03:20:48;3.37;;;1.30;;
49175;SDS011;35012;47.200;9.748;2023-08-06T03:23:14;1.63;;;1.30;;
49175;SDS011;35012;47.200;9.748;2023-08-06T03:25:39;1.80;;;1.40;;
49175;SDS011;35012;47.200;9.748;2023-08-06T03:28:05;5.23;;;2.80;;
49175;SDS011;35012;47.200;9.748;2023-08-06T03:30:30;3.37;;;1.60;;
49175;SDS011;35012;47.200;9.748;2023-08-06T03:32:55;3.83;;;1.50;;
49175;SDS011;35012;47.200;9.748;2023-08-06T03:35:21;3.50;;;1.80;;
49175;SDS011;35012;47.200;9.748;2023-08-06T03:37:46;1.67;;;1.40;;
49175;SDS011;35012;47.200;9.748;2023-08-06T03:40:12;2.33;;;1.60;;
49175;SDS011;35012;47.200;9.748;2023-08-06T03:42:37;1.40;;;1.30;;
49175;SDS011;35012;47.200;9.748;2023-08-06T03:45:03;2.67;;;1.40;;
49175;SDS011;35012;47.200;9.748;2023-08-06T03:47:29;1.50;;;1.40;;
49175;SDS011;35012;47.200;9.748;2023-08-06T03:49:54;3.00;;;1.50;;
49175;SDS011;35012;47.200;9.748;2023-08-06T03:52:19;1.80;;;1.60;;
49175;SDS011;35012;47.200;9.748;2023-08-06T03:54:45;2.67;;;1.83;;
49175;SDS011;35012;47.200;9.748;2023-08-06T03:57:10;3.33;;;1.60;;
49175;SDS011;35012;47.200;9.748;2023-08-06T03:59:36;2.73;;;1.80;;
49175;SDS011;35012;47.200;9.748;2023-08-06T04:02:01;2.90;;;1.67;;
49175;SDS011;35012;47.200;9.748;2023-08-06T04:04:27;1.53;;;1.40;;
49175;SDS011;35012;47.200;9.748;2023-08-06T04:06:52;1.73;;;1.30;;
49175;SDS011;35012;47.200;9.748;2023-08-06T04:09:18;2.93;;;1.77;;
49175;SDS011;35012;47.200;9.748;2023-08-06T04:11:44;2.13;;;1.60;;
49175;SDS011;35012;47.200;9.748;2023-08-06T04:14:09;1.87;;;1.33;;
49175;SDS011;35012;47.200;9.748;2023-08-06T04:16:34;1.40;;;1.30;;
49175;SDS011;35012;47.200;9.748;2023-08-06T04:19:00;1.50;;;1.33;;
49175;SDS011;35012;47.200;9.748;2023-08-06T04:21:25;2.17;;;1.60;;
49175;SDS011;35012;47.200;9.748;2023-08-06T04:23:51;2.60;;;1.40;;
49175;SDS011;35012;47.200;9.748;2023-08-06T04:26:17;1.40;;;1.30;;
49175;SDS011;35012;47.200;9.748;2023-08-06T04:28:42;2.23;;;1.40;;
49175;SDS011;35012;47.200;9.748;2023-08-06T04:31:08;1.73;;;1.40;;
49175;SDS011;35012;47.200;9.748;2023-08-06T04:33:34;4.53;;;1.40;;
49175;SDS011;35012;47.200;9.748;2023-08-06T04:36:00;1.60;;;1.20;;
49175;SDS011;35012;47.200;9.748;2023-08-06T04:38:26;1.80;;;1.33;;
49175;SDS011;35012;47.200;9.748;2023-08-06T04:40:52;1.93;;;1.20;;
49175;SDS011;35012;47.200;9.748;2023-08-06T04:43:18;2.80;;;1.57;;
49175;SDS011;35012;47.200;9.748;2023-08-06T04:45:46;2.07;;;1.40;;
49175;SDS011;35012;47.200;9.748;2023-08-06T04:48:14;1.97;;;0.97;;
49175;SDS011;35012;47.200;9.748;2023-08-06T04:50:46;1.50;;;1.10;;
49175;SDS011;35012;47.200;9.748;2023-08-06T04:53:12;3.20;;;1.60;;
49175;SDS011;35012;47.200;9.748;2023-08-06T04:55:38;1.47;;;1.20;;
49175;SDS011;35012;47.200;9.748;2023-08-06T04:58:03;2.33;;;1.60;;
49175;SDS011;35012;47.200;9.748;2023-08-06T05:00:29;4.93;;;1.57;;
49175;SDS011;35012;47.200;9.748;2023-08-06T05:02:54;2.83;;;1.23;;
49175;SDS011;35012;47.200;9.748;2023-08-06T05:05:20;2.00;;;1.17;;
49175;SDS011;35012;47.200;9.748;2023-08-06T05:07:47;1.23;;;1.10;;
49175;SDS011;35012;47.200;9.748;2023-08-06T05:10:13;2.13;;;1.20;;
49175;SDS011;35012;47.200;9.748;2023-08-06T05:12:39;1.70;;;1.10;;
49175;SDS011;35012;47.200;9.748;2023-08-06T05:15:04;1.27;;;1.13;;
49175;SDS011;35012;47.200;9.748;2023-08-06T05:17:30;4.40;;;1.30;;
49175;SDS011;35012;47.200;9.748;2023-08-06T05:19:55;2.27;;;1.20;;
49175;SDS011;35012;47.200;9.748;2023-08-06T05:22:20;1.90;;;1.47;;
49175;SDS011;35012;47.200;9.748;2023-08-06T05:24:46;3.57;;;1.07;;
49175;SDS011;35012;47.200;9.748;2023-08-06T05:27:11;1.30;;;1.07;;
49175;SDS011;35012;47.200;9.748;2023-08-06T05:29:37;2.33;;;1.30;;
49175;SDS011;35012;47.200;9.748;2023-08-06T05:32:02;1.80;;;1.47;;
49175;SDS011;35012;47.200;9.748;2023-08-06T05:34:28;1.40;;;1.17;;
49175;SDS011;35012;47.200;9.748;2023-08-06T05:36:54;1.80;;;1.30;;
49175;SDS011;35012;47.200;9.748;2023-08-06T05:39:19;1.50;;;1.20;;
49175;SDS011;35012;47.200;9.748;2023-08-06T05:41:45;1.40;;;1.03;;
49175;SDS011;35012;47.200;9.748;2023-08-06T05:44:10;2.43;;;1.60;;
49175;SDS011;35012;47.200;9.748;2023-08-06T05:46:36;3.57;;;1.37;;
49175;SDS011;35012;47.200;9.748;2023-08-06T05:49:01;1.63;;;1.10;;
49175;SDS011;35012;47.200;9.748;2023-08-06T05:51:27;2.47;;;1.50;;
49175;SDS011;35012;47.200;9.748;2023-08-06T05:53:52;1.20;;;1.10;;
49175;SDS011;35012;47.200;9.748;2023-08-06T05:56:18;2.20;;;1.37;;
49175;SDS011;35012;47.200;9.748;2023-08-06T05:58:43;1.57;;;1.30;;
49175;SDS011;35012;47.200;9.748;2023-08-06T06:01:09;2.83;;;1.27;;
49175;SDS011;35012;47.200;9.748;2023-08-06T06:03:34;3.50;;;1.43;;
49175;SDS011;35012;47.200;9.748;2023-08-06T06:06:00;1.60;;;1.20;;
49175;SDS011;35012;47.200;9.748;2023-08-06T06:08:26;1.60;;;1.40;;
49175;SDS011;35012;47.200;9.748;2023-08-06T06:10:51;5.10;;;1.47;;
49175;SDS011;35012;47.200;9.748;2023-08-06T06:13:17;1.50;;;1.33;;
49175;SDS011;35012;47.200;9.748;2023-08-06T06:15:42;3.20;;;1.53;;
49175;SDS011;35012;47.200;9.748;2023-08-06T06:18:07;2.00;;;1.27;;
49175;SDS011;35012;47.200;9.748;2023-08-06T06:20:33;1.40;;;1.13;;
49175;SDS011;35012;47.200;9.748;2023-08-06T06:22:59;1.30;;;1.10;;
49175;SDS011;35012;47.200;9.748;2023-08-06T06:25:24;1.20;;;1.10;;
49175;SDS011;35012;47.200;9.748;2023-08-06T06:27:50;1.83;;;1.10;;
49175;SDS011;35012;47.200;9.748;2023-08-06T06:30:15;1.13;;;1.00;;
49175;SDS011;35012;47.200;9.748;2023-08-06T06:32:41;1.30;;;1.20;;
49175;SDS011;35012;47.200;9.748;2023-08-06T06:35:06;1.70;;;1.10;;
49175;SDS011;35012;47.200;9.748;2023-08-06T06:37:32;1.73;;;1.23;;
49175;SDS011;35012;47.200;9.748;2023-08-06T06:39:58;2.80;;;1.30;;
49175;SDS011;35012;47.200;9.748;2023-08-06T06:42:23;1.57;;;1.10;;
49175;SDS011;35012;47.200;9.748;2023-08-06T06:44:48;1.87;;;1.50;;
49175;SDS011;35012;47.200;9.748;2023-08-06T06:47:14;2.60;;;1.33;;
49175;SDS011;35012;47.200;9.748;2023-08-06T06:49:39;1.73;;;1.10;;
49175;SDS011;35012;47.200;9.748;2023-08-06T06:52:05;1.27;;;0.93;;
49175;SDS011;35012;47.200;9.748;2023-08-06T06:54:31;1.43;;;1.20;;
49175;SDS011;35012;47.200;9.748;2023-08-06T06:56:56;1.63;;;1.27;;
49175;SDS011;35012;47.200;9.748;2023-08-06T06:59:22;4.83;;;3.50;;
49175;SDS011;35012;47.200;9.748;2023-08-06T07:01:47;3.00;;;2.13;;
49175;SDS011;35012;47.200;9.748;2023-08-06T07:04:12;1.47;;;1.30;;
49175;SDS011;35012;47.200;9.748;2023-08-06T07:06:38;1.50;;;1.10;;
49175;SDS011;35012;47.200;9.748;2023-08-06T07:09:03;3.37;;;1.20;;
49175;SDS011;35012;47.200;9.748;2023-08-06T07:11:29;2.63;;;1.27;;
49175;SDS011;35012;47.200;9.748;2023-08-06T07:13:57;2.33;;;1.50;;
49175;SDS011;35012;47.200;9.748;2023-08-06T07:16:23;1.80;;;1.37;;
49175;SDS011;35012;47.200;9.748;2023-08-06T07:18:51;1.70;;;1.30;;
49175;SDS011;35012;47.200;9.748;2023-08-06T07:21:18;1.60;;;1.20;;
49175;SDS011;35012;47.200;9.748;2023-08-06T07:23:45;2.40;;;1.70;;
49175;SDS011;35012;47.200;9.748;2023-08-06T07:26:11;2.07;;;1.73;;
49175;SDS011;35012;47.200;9.748;2023-08-06T07:28:37;2.67;;;1.63;;
49175;SDS011;35012;47.200;9.748;2023-08-06T07:31:03;3.60;;;1.60;;
49175;SDS011;35012;47.200;9.748;2023-08-06T07:33:29;1.70;;;1.60;;
49175;SDS011;35012;47.200;9.748;2023-08-06T07:35:54;2.03;;;1.80;;
49175;SDS011;35012;47.200;9.748;2023-08-06T07:38:20;3.77;;;1.93;;
49175;SDS011;35012;47.200;9.748;2023-08-06T07:40:46;2.83;;;1.60;;
49175;SDS011;35012;47.200;9.748;2023-08-06T07:43:12;4.00;;;2.10;;
49175;SDS011;35012;47.200;9.748;2023-08-06T07:45:37;2.90;;;1.70;;
49175;SDS011;35012;47.200;9.748;2023-08-06T07:48:03;2.53;;;1.27;;
49175;SDS011;35012;47.200;9.748;2023-08-06T07:50:31;1.47;;;1.30;;
49175;SDS011;35012;47.200;9.748;2023-08-06T07:52:56;3.40;;;1.50;;
49175;SDS011;35012;47.200;9.748;2023-08-06T07:55:22;2.07;;;1.20;;
49175;SDS011;35012;47.200;9.748;2023-08-06T07:57:47;1.80;;;1.10;;
49175;SDS011;35012;47.200;9.748;2023-08-06T08:00:13;1.10;;;0.70;;
49175;SDS011;35012;47.200;9.748;2023-08-06T08:02:38;1.10;;;0.60;;
49175;SDS011;35012;47.200;9.748;2023-08-06T08:05:04;2.57;;;0.40;;
49175;SDS011;35012;47.200;9.748;2023-08-06T08:07:32;0.40;;;0.30;;
49175;SDS011;35012;47.200;9.748;2023-08-06T08:09:57;4.33;;;0.53;;
49175;SDS011;35012;47.200;9.748;2023-08-06T08:12:23;1.10;;;0.50;;
49175;SDS011;35012;47.200;9.748;2023-08-06T08:14:49;0.97;;;0.50;;
49175;SDS011;35012;47.200;9.748;2023-08-06T08:17:14;1.80;;;0.67;;
49175;SDS011;35012;47.200;9.748;2023-08-06T08:19:40;1.27;;;0.40;;
49175;SDS011;35012;47.200;9.748;2023-08-06T08:22:06;0.63;;;0.30;;
49175;SDS011;35012;47.200;9.748;2023-08-06T08:24:31;0.87;;;0.40;;
49175;SDS011;35012;47.200;9.748;2023-08-06T08:26:57;0.73;;;0.30;;
49175;SDS011;35012;47.200;9.748;2023-08-06T08:29:22;1.47;;;0.67;;
49175;SDS011;35012;47.200;9.748;2023-08-06T08:31:48;2.10;;;0.57;;
49175;SDS011;35012;47.200;9.748;2023-08-06T08:34:15;1.83;;;0.50;;
49175;SDS011;35012;47.200;9.748;2023-08-06T08:36:41;2.13;;;0.50;;
49175;SDS011;35012;47.200;9.748;2023-08-06T08:39:07;3.50;;;0.37;;
49175;SDS011;35012;47.200;9.748;2023-08-06T08:41:33;1.10;;;0.60;;
49175;SDS011;35012;47.200;9.748;2023-08-06T08:43:59;1.70;;;0.53;;
49175;SDS011;35012;47.200;9.748;2023-08-06T08:46:31;2.03;;;0.50;;
49175;SDS011;35012;47.200;9.748;2023-08-06T08:48:58;1.63;;;0.53;;
49175;SDS011;35012;47.200;9.748;2023-08-06T08:51:24;2.03;;;0.70;;
49175;SDS011;35012;47.200;9.748;2023-08-06T08:53:51;1.10;;;0.40;;
49175;SDS011;35012;47.200;9.748;2023-08-06T08:56:18;1.50;;;0.40;;
49175;SDS011;35012;47.200;9.748;2023-08-06T08:58:44;1.23;;;0.47;;
49175;SDS011;35012;47.200;9.748;2023-08-06T09:01:10;1.20;;;0.50;;
49175;SDS011;35012;47.200;9.748;2023-08-06T09:03:36;1.20;;;0.40;;
49175;SDS011;35012;47.200;9.748;2023-08-06T09:06:01;2.50;;;0.67;;
49175;SDS011;35012;47.200;9.748;2023-08-06T09:08:34;2.83;;;0.40;;
49175;SDS011;35012;47.200;9.748;2023-08-06T09:11:02;2.43;;;0.40;;
49175;SDS011;35012;47.200;9.748;2023-08-06T09:13:29;1.17;;;0.30;;
49175;SDS011;35012;47.200;9.748;2023-08-06T09:15:55;1.17;;;0.40;;
49175;SDS011;35012;47.200;9.748;2023-08-06T09:18:27;1.90;;;0.37;;
49175;SDS011;35012;47.200;9.748;2023-08-06T09:20:53;1.27;;;0.27;;
49175;SDS011;35012;47.200;9.748;2023-08-06T09:23:18;1.67;;;0.40;;
49175;SDS011;35012;47.200;9.748;2023-08-06T09:25:45;3.53;;;0.40;;
49175;SDS011;35012;47.200;9.748;2023-08-06T09:28:11;0.77;;;0.23;;
49175;SDS011;35012;47.200;9.748;2023-08-06T09:30:36;1.10;;;0.30;;
49175;SDS011;35012;47.200;9.748;2023-08-06T09:33:02;0.80;;;0.20;;
49175;SDS011;35012;47.200;9.748;2023-08-06T09:35:28;0.50;;;0.20;;
49175;SDS011;35012;47.200;9.748;2023-08-06T09:37:55;3.40;;;0.30;;
49175;SDS011;35012;47.200;9.748;2023-08-06T09:40:27;0.90;;;0.20;;
49175;SDS011;35012;47.200;9.748;2023-08-06T09:42:54;0.70;;;0.20;;
49175;SDS011;35012;47.200;9.748;2023-08-06T09:45:20;0.20;;;0.10;;
49175;SDS011;35012;47.200;9.748;2023-08-06T09:47:49;0.20;;;0.10;;
49175;SDS011;35012;47.200;9.748;2023-08-06T09:50:19;1.17;;;0.20;;
49175;SDS011;35012;47.200;9.748;2023-08-06T09:52:45;2.10;;;0.20;;
49175;SDS011;35012;47.200;9.748;2023-08-06T09:55:12;0.33;;;0.20;;
49175;SDS011;35012;47.200;9.748;2023-08-06T09:57:39;0.50;;;0.20;;
49175;SDS011;35012;47.200;9.748;2023-08-06T10:00:08;0.20;;;0.10;;
49175;SDS011;35012;47.200;9.748;2023-08-06T10:02:35;0.50;;;0.10;;
49175;SDS011;35012;47.200;9.748;2023-08-06T10:05:02;3.57;;;0.13;;
49175;SDS011;35012;47.200;9.748;2023-08-06T10:07:29;0.20;;;0.10;;
49175;SDS011;35012;47.200;9.748;2023-08-06T10:09:55;0.20;;;0.10;;
49175;SDS011;35012;47.200;9.748;2023-08-06T10:12:21;0.20;;;0.10;;
49175;SDS011;35012;47.200;9.748;2023-08-06T10:14:47;0.43;;;0.10;;
49175;SDS011;35012;47.200;9.748;2023-08-06T10:17:14;0.20;;;0.10;;
49175;SDS011;35012;47.200;9.748;2023-08-06T10:19:39;0.57;;;0.10;;
49175;SDS011;35012;47.200;9.748;2023-08-06T10:24:48;0.20;;;0.10;;
49175;SDS011;35012;47.200;9.748;2023-08-06T10:27:32;0.50;;;0.20;;
49175;SDS011;35012;47.200;9.748;2023-08-06T10:30:21;0.20;;;0.10;;
49175;SDS011;35012;47.200;9.748;2023-08-06T10:32:48;0.20;;;0.03;;
49175;SDS011;35012;47.200;9.748;2023-08-06T10:38:10;0.60;;;0.53;;
49175;SDS011;35012;47.200;9.748;2023-08-06T10:40:37;0.40;;;0.30;;
49175;SDS011;35012;47.200;9.748;2023-08-06T10:43:05;0.20;;;0.20;;
49175;SDS011;35012;47.200;9.748;2023-08-06T10:45:35;0.30;;;0.20;;
49175;SDS011;35012;47.200;9.748;2023-08-06T10:48:02;0.60;;;0.10;;
49175;SDS011;35012;47.200;9.748;2023-08-06T10:50:29;0.27;;;0.13;;
49175;SDS011;35012;47.200;9.748;2023-08-06T10:52:56;0.87;;;0.20;;
49175;SDS011;35012;47.200;9.748;2023-08-06T10:55:26;0.30;;;0.20;;
49175;SDS011;35012;47.200;9.748;2023-08-06T10:57:52;0.60;;;0.20;;
49175;SDS011;35012;47.200;9.748;2023-08-06T11:00:18;2.20;;;0.40;;
49175;SDS011;35012;47.200;9.748;2023-08-06T11:02:49;0.40;;;0.30;;
49175;SDS011;35012;47.200;9.748;2023-08-06T11:05:16;0.60;;;0.30;;
49175;SDS011;35012;47.200;9.748;2023-08-06T11:07:42;0.40;;;0.20;;
49175;SDS011;35012;47.200;9.748;2023-08-06T11:10:08;1.23;;;0.53;;
49175;SDS011;35012;47.200;9.748;2023-08-06T11:12:38;0.53;;;0.30;;
49175;SDS011;35012;47.200;9.748;2023-08-06T11:15:04;0.37;;;0.20;;
49175;SDS011;35012;47.200;9.748;2023-08-06T11:17:30;0.30;;;0.30;;
49175;SDS011;35012;47.200;9.748;2023-08-06T11:20:00;0.67;;;0.40;;
49175;SDS011;35012;47.200;9.748;2023-08-06T11:22:27;0.60;;;0.57;;
49175;SDS011;35012;47.200;9.748;2023-08-06T11:24:53;0.30;;;0.20;;
49175;SDS011;35012;47.200;9.748;2023-08-06T11:27:18;0.77;;;0.13;;
49175;SDS011;35012;47.200;9.748;2023-08-06T11:29:44;0.40;;;0.10;;
49175;SDS011;35012;47.200;9.748;2023-08-06T11:32:10;0.20;;;0.20;;
49175;SDS011;35012;47.200;9.748;2023-08-06T11:34:36;0.30;;;0.10;;
49175;SDS011;35012;47.200;9.748;2023-08-06T11:37:02;1.70;;;0.30;;
49175;SDS011;35012;47.200;9.748;2023-08-06T11:39:30;0.30;;;0.20;;
49175;SDS011;35012;47.200;9.748;2023-08-06T11:41:59;0.63;;;0.20;;
49175;SDS011;35012;47.200;9.748;2023-08-06T11:44:29;0.60;;;0.20;;
49175;SDS011;35012;47.200;9.748;2023-08-06T11:46:56;0.63;;;0.20;;
49175;SDS011;35012;47.200;9.748;2023-08-06T11:49:41;1.40;;;0.30;;
49175;SDS011;35012;47.200;9.748;2023-08-06T11:54:48;0.20;;;0.20;;
49175;SDS011;35012;47.200;9.748;2023-08-06T11:57:26;0.23;;;0.20;;
49175;SDS011;35012;47.200;9.748;2023-08-06T11:59:52;0.30;;;0.10;;
49175;SDS011;35012;47.200;9.748;2023-08-06T12:02:20;0.20;;;0.10;;
49175;SDS011;35012;47.200;9.748;2023-08-06T12:04:58;0.20;;;0.10;;
49175;SDS011;35012;47.200;9.748;2023-08-06T12:07:36;0.30;;;0.20;;
49175;SDS011;35012;47.200;9.748;2023-08-06T12:10:03;0.57;;;0.20;;
49175;SDS011;35012;47.200;9.748;2023-08-06T12:12:28;0.50;;;0.20;;
49175;SDS011;35012;47.200;9.748;2023-08-06T12:14:54;0.37;;;0.10;;
49175;SDS011;35012;47.200;9.748;2023-08-06T12:17:20;0.20;;;0.10;;
49175;SDS011;35012;47.200;9.748;2023-08-06T12:19:46;0.20;;;0.10;;
49175;SDS011;35012;47.200;9.748;2023-08-06T12:22:12;0.90;;;0.33;;
49175;SDS011;35012;47.200;9.748;2023-08-06T12:24:39;2.60;;;0.60;;
49175;SDS011;35012;47.200;9.748;2023-08-06T12:27:07;0.60;;;0.50;;
49175;SDS011;35012;47.200;9.748;2023-08-06T12:29:33;0.40;;;0.40;;
49175;SDS011;35012;47.200;9.748;2023-08-06T12:31:59;1.60;;;0.40;;
49175;SDS011;35012;47.200;9.748;2023-08-06T12:34:24;0.40;;;0.30;;
49175;SDS011;35012;47.200;9.748;2023-08-06T12:36:50;0.77;;;0.60;;
49175;SDS011;35012;47.200;9.748;2023-08-06T12:39:15;1.20;;;0.50;;
49175;SDS011;35012;47.200;9.748;2023-08-06T12:41:41;0.57;;;0.30;;
49175;SDS011;35012;47.200;9.748;2023-08-06T12:44:08;1.80;;;0.23;;
49175;SDS011;35012;47.200;9.748;2023-08-06T12:46:34;2.20;;;0.20;;
49175;SDS011;35012;47.200;9.748;2023-08-06T12:48:59;1.20;;;0.30;;
49175;SDS011;35012;47.200;9.748;2023-08-06T12:51:25;1.10;;;0.30;;
49175;SDS011;35012;47.200;9.748;2023-08-06T12:53:50;0.33;;;0.20;;
49175;SDS011;35012;47.200;9.748;2023-08-06T12:56:16;0.47;;;0.30;;
49175;SDS011;35012;47.200;9.748;2023-08-06T12:58:42;0.50;;;0.33;;
49175;SDS011;35012;47.200;9.748;2023-08-06T13:01:07;0.93;;;0.43;;
49175;SDS011;35012;47.200;9.748;2023-08-06T13:03:33;2.57;;;1.13;;
49175;SDS011;35012;47.200;9.748;2023-08-06T13:05:58;0.90;;;0.30;;
49175;SDS011;35012;47.200;9.748;2023-08-06T13:08:24;1.63;;;0.23;;
49175;SDS011;35012;47.200;9.748;2023-08-06T13:10:50;0.60;;;0.30;;
49175;SDS011;35012;47.200;9.748;2023-08-06T13:13:15;2.80;;;0.30;;
49175;SDS011;35012;47.200;9.748;2023-08-06T13:15:41;0.30;;;0.17;;
49175;SDS011;35012;47.200;9.748;2023-08-06T13:18:06;0.50;;;0.20;;
49175;SDS011;35012;47.200;9.748;2023-08-06T13:20:32;0.60;;;0.20;;
49175;SDS011;35012;47.200;9.748;2023-08-06T13:22:58;0.40;;;0.20;;
49175;SDS011;35012;47.200;9.748;2023-08-06T13:25:24;0.80;;;0.20;;
49175;SDS011;35012;47.200;9.748;2023-08-06T13:27:50;0.60;;;0.20;;
49175;SDS011;35012;47.200;9.748;2023-08-06T13:30:15;0.57;;;0.40;;
49175;SDS011;35012;47.200;9.748;2023-08-06T13:32:43;0.30;;;0.20;;
49175;SDS011;35012;47.200;9.748;2023-08-06T13:35:09;0.83;;;0.30;;
49175;SDS011;35012;47.200;9.748;2023-08-06T13:37:35;1.57;;;0.40;;
49175;SDS011;35012;47.200;9.748;2023-08-06T13:40:00;0.50;;;0.40;;
49175;SDS011;35012;47.200;9.748;2023-08-06T13:42:26;0.47;;;0.30;;
49175;SDS011;35012;47.200;9.748;2023-08-06T13:44:51;0.80;;;0.37;;
49175;SDS011;35012;47.200;9.748;2023-08-06T13:47:17;1.97;;;0.30;;
49175;SDS011;35012;47.200;9.748;2023-08-06T13:49:43;1.37;;;0.37;;
49175;SDS011;35012;47.200;9.748;2023-08-06T13:52:08;1.23;;;0.27;;
49175;SDS011;35012;47.200;9.748;2023-08-06T13:54:34;0.30;;;0.20;;
49175;SDS011;35012;47.200;9.748;2023-08-06T13:57:00;0.93;;;0.30;;
49175;SDS011;35012;47.200;9.748;2023-08-06T13:59:25;0.63;;;0.30;;
49175;SDS011;35012;47.200;9.748;2023-08-06T14:01:50;0.50;;;0.40;;
49175;SDS011;35012;47.200;9.748;2023-08-06T14:04:18;0.40;;;0.30;;
49175;SDS011;35012;47.200;9.748;2023-08-06T14:06:45;0.40;;;0.30;;
49175;SDS011;35012;47.200;9.748;2023-08-06T14:09:10;0.40;;;0.30;;
49175;SDS011;35012;47.200;9.748;2023-08-06T14:11:39;0.30;;;0.23;;
49175;SDS011;35012;47.200;9.748;2023-08-06T14:14:04;0.40;;;0.23;;
49175;SDS011;35012;47.200;9.748;2023-08-06T14:16:30;0.93;;;0.40;;
49175;SDS011;35012;47.200;9.748;2023-08-06T14:18:55;1.57;;;0.37;;
49175;SDS011;35012;47.200;9.748;2023-08-06T14:21:21;0.40;;;0.20;;
49175;SDS011;35012;47.200;9.748;2023-08-06T14:23:46;1.43;;;0.30;;
49175;SDS011;35012;47.200;9.748;2023-08-06T14:26:12;1.33;;;0.40;;
49175;SDS011;35012;47.200;9.748;2023-08-06T14:28:40;0.43;;;0.30;;
49175;SDS011;35012;47.200;9.748;2023-08-06T14:31:05;0.30;;;0.30;;
49175;SDS011;35012;47.200;9.748;2023-08-06T14:33:31;1.13;;;0.30;;
49175;SDS011;35012;47.200;9.748;2023-08-06T14:35:57;0.33;;;0.30;;
49175;SDS011;35012;47.200;9.748;2023-08-06T14:38:22;0.43;;;0.30;;
49175;SDS011;35012;47.200;9.748;2023-08-06T14:40:48;1.00;;;0.50;;
49175;SDS011;35012;47.200;9.748;2023-08-06T14:43:14;1.00;;;0.73;;
49175;SDS011;35012;47.200;9.748;2023-08-06T14:45:39;0.67;;;0.57;;
49175;SDS011;35012;47.200;9.748;2023-08-06T14:48:05;0.73;;;0.50;;
49175;SDS011;35012;47.200;9.748;2023-08-06T14:50:31;0.50;;;0.43;;
49175;SDS011;35012;47.200;9.748;2023-08-06T14:52:57;0.70;;;0.40;;